createdAt,value
2023-09-09T00:00:40.357Z,17.89
2023-09-09T00:01:42.601Z,17.90
2023-09-09T00:02:44.849Z,17.87
2023-09-09T00:03:47.333Z,17.85
2023-09-09T00:04:49.727Z,17.85
2023-09-09T00:05:52.053Z,17.82
2023-09-09T00:06:54.305Z,17.83
2023-09-09T00:07:56.590Z,17.84
2023-09-09T00:08:58.738Z,17.85
2023-09-09T00:10:01.000Z,17.83
2023-09-09T00:11:03.235Z,17.90
2023-09-09T00:12:05.812Z,17.87
2023-09-09T00:13:08.275Z,17.88
2023-09-09T00:14:10.476Z,17.85
2023-09-09T00:15:12.707Z,17.79
2023-09-09T00:16:15.443Z,17.77
2023-09-09T00:17:17.733Z,17.77
2023-09-09T00:18:19.946Z,17.77
2023-09-09T00:19:22.992Z,17.75
2023-09-09T00:20:31.786Z,17.79
2023-09-09T00:21:34.013Z,17.78
2023-09-09T00:22:37.003Z,17.74
2023-09-09T00:23:39.393Z,17.71
2023-09-09T00:24:41.639Z,17.69
2023-09-09T00:25:44.320Z,17.66
2023-09-09T00:26:46.505Z,17.66
2023-09-09T00:27:48.772Z,17.64
2023-09-09T00:28:50.936Z,17.69
2023-09-09T00:29:53.172Z,17.67
2023-09-09T00:30:55.398Z,17.63
2023-09-09T00:31:57.632Z,17.65
2023-09-09T00:33:00.158Z,17.64
2023-09-09T00:34:02.523Z,17.64
2023-09-09T00:35:05.263Z,17.63
2023-09-09T00:36:07.451Z,17.64
2023-09-09T00:37:09.771Z,17.61
2023-09-09T00:38:13.378Z,17.58
2023-09-09T00:39:15.509Z,17.59
2023-09-09T00:40:17.852Z,17.61
2023-09-09T00:41:21.834Z,17.57
2023-09-09T00:42:24.003Z,17.52
2023-09-09T00:43:26.161Z,17.48
2023-09-09T00:44:28.360Z,17.48
2023-09-09T00:45:30.651Z,17.50
2023-09-09T00:46:32.919Z,17.49
2023-09-09T00:47:35.435Z,17.46
2023-09-09T00:48:38.525Z,17.43
2023-09-09T00:49:40.745Z,17.41
2023-09-09T00:50:43.470Z,17.39
2023-09-09T00:51:45.925Z,17.39
2023-09-09T00:52:48.296Z,17.36
2023-09-09T00:53:50.484Z,17.34
2023-09-09T00:54:53.318Z,17.33
2023-09-09T00:55:55.736Z,17.30
2023-09-09T00:57:01.957Z,17.31
2023-09-09T00:58:04.265Z,17.33
2023-09-09T00:59:06.424Z,17.28
2023-09-09T01:00:12.285Z,17.28
2023-09-09T01:01:14.527Z,17.28
2023-09-09T01:02:17.111Z,17.22
2023-09-09T01:03:19.449Z,17.22
2023-09-09T01:04:21.824Z,17.22
2023-09-09T01:05:24.742Z,17.20
2023-09-09T01:06:26.981Z,17.20
2023-09-09T01:07:29.234Z,17.24
2023-09-09T01:08:32.035Z,17.23
2023-09-09T01:09:35.221Z,17.19
2023-09-09T01:10:37.459Z,17.17
2023-09-09T01:11:39.578Z,17.15
2023-09-09T01:12:44.823Z,17.17
2023-09-09T01:13:47.114Z,17.15
2023-09-09T01:14:49.436Z,17.16
2023-09-09T01:15:52.325Z,17.16
2023-09-09T01:16:54.947Z,17.16
2023-09-09T01:17:57.303Z,17.18
2023-09-09T01:18:59.617Z,17.14
2023-09-09T01:20:06.817Z,17.11
2023-09-09T01:21:10.313Z,17.10
2023-09-09T01:22:19.847Z,17.09
2023-09-09T01:23:22.135Z,17.09
2023-09-09T01:24:24.288Z,17.11
2023-09-09T01:25:26.533Z,17.10
2023-09-09T01:26:29.598Z,17.08
2023-09-09T01:27:31.809Z,17.08
2023-09-09T01:28:34.096Z,17.07
2023-09-09T01:29:36.313Z,17.09
2023-09-09T01:30:38.565Z,17.09
2023-09-09T01:31:40.804Z,17.07
2023-09-09T01:32:43.130Z,17.05
2023-09-09T01:33:45.363Z,17.02
2023-09-09T01:34:47.594Z,17.02
2023-09-09T01:35:49.748Z,16.99
2023-09-09T01:36:52.014Z,16.99
2023-09-09T01:37:54.647Z,16.99
2023-09-09T01:38:57.051Z,16.96
2023-09-09T01:39:59.319Z,16.95
2023-09-09T01:41:02.434Z,16.96
2023-09-09T01:42:04.873Z,16.94
2023-09-09T01:43:07.022Z,16.96
2023-09-09T01:44:09.267Z,16.96
2023-09-09T01:45:11.642Z,16.90
2023-09-09T01:46:13.935Z,16.95
2023-09-09T01:47:16.123Z,16.91
2023-09-09T01:48:18.328Z,16.90
2023-09-09T01:49:20.562Z,16.91
2023-09-09T01:50:22.910Z,16.86
2023-09-09T01:51:25.084Z,16.85
2023-09-09T01:52:27.293Z,16.84
2023-09-09T01:53:29.688Z,16.83
2023-09-09T01:54:32.026Z,16.83
2023-09-09T01:55:34.259Z,16.83
2023-09-09T01:56:36.487Z,16.81
2023-09-09T01:57:38.979Z,16.75
2023-09-09T01:58:41.137Z,16.73
2023-09-09T01:59:44.316Z,16.71
2023-09-09T02:00:46.485Z,16.71
2023-09-09T02:01:48.821Z,16.67
2023-09-09T02:02:51.098Z,16.71
2023-09-09T02:03:53.486Z,16.70
2023-09-09T02:04:55.875Z,16.73
2023-09-09T02:05:58.098Z,16.73
2023-09-09T02:07:00.253Z,16.69
2023-09-09T02:08:02.496Z,16.72
2023-09-09T02:09:05.259Z,16.71
2023-09-09T02:10:09.032Z,16.73
2023-09-09T02:11:12.472Z,16.69
2023-09-09T02:12:14.661Z,16.72
2023-09-09T02:13:16.811Z,16.70
2023-09-09T02:14:19.148Z,16.69
2023-09-09T02:15:21.458Z,16.68
2023-09-09T02:16:23.700Z,16.69
2023-09-09T02:17:26.084Z,16.67
2023-09-09T02:18:28.237Z,16.65
2023-09-09T02:19:31.181Z,16.68
2023-09-09T02:20:33.331Z,16.66
2023-09-09T02:21:35.478Z,16.68
2023-09-09T02:22:37.599Z,16.67
2023-09-09T02:23:41.505Z,16.60
2023-09-09T02:24:43.839Z,16.61
2023-09-09T02:25:46.007Z,16.58
2023-09-09T02:26:48.172Z,16.58
2023-09-09T02:27:51.038Z,16.63
2023-09-09T02:28:53.396Z,16.59
2023-09-09T02:29:55.642Z,16.57
2023-09-09T02:30:58.028Z,16.52
2023-09-09T02:32:00.410Z,16.53
2023-09-09T02:33:02.754Z,16.52
2023-09-09T02:34:05.108Z,16.52
2023-09-09T02:35:09.377Z,16.54
2023-09-09T02:36:11.545Z,16.56
2023-09-09T02:37:19.598Z,16.52
2023-09-09T02:38:21.757Z,16.51
2023-09-09T02:39:24.000Z,16.55
2023-09-09T02:40:26.263Z,16.51
2023-09-09T02:41:28.620Z,16.51
2023-09-09T02:42:30.770Z,16.53
2023-09-09T02:43:33.034Z,16.49
2023-09-09T02:44:35.290Z,16.52
2023-09-09T02:45:38.218Z,16.52
2023-09-09T02:46:40.890Z,16.50
2023-09-09T02:47:43.060Z,16.49
2023-09-09T02:48:45.248Z,16.52
2023-09-09T02:49:47.509Z,16.51
2023-09-09T02:50:49.650Z,16.52
2023-09-09T02:51:51.786Z,16.53
2023-09-09T02:52:53.965Z,16.57
2023-09-09T02:53:56.165Z,16.50
2023-09-09T02:54:58.377Z,16.49
2023-09-09T02:56:00.546Z,16.45
2023-09-09T02:57:04.997Z,16.44
2023-09-09T02:58:07.942Z,16.45
2023-09-09T02:59:10.142Z,16.44
2023-09-09T03:00:14.262Z,16.42
2023-09-09T03:01:16.720Z,16.40
2023-09-09T03:02:18.963Z,16.40
2023-09-09T03:03:23.874Z,16.43
2023-09-09T03:04:26.444Z,16.42
2023-09-09T03:05:28.581Z,16.40
2023-09-09T03:06:30.771Z,16.38
2023-09-09T03:07:32.932Z,16.38
2023-09-09T03:08:35.361Z,16.37
2023-09-09T03:09:37.643Z,16.36
2023-09-09T03:10:39.901Z,16.38
2023-09-09T03:11:42.086Z,16.32
2023-09-09T03:12:44.243Z,16.30
2023-09-09T03:13:46.549Z,16.31
2023-09-09T03:14:49.289Z,16.33
2023-09-09T03:15:51.415Z,16.29
2023-09-09T03:16:53.699Z,16.28
2023-09-09T03:17:56.025Z,16.25
2023-09-09T03:18:58.290Z,16.31
2023-09-09T03:20:00.608Z,16.28
2023-09-09T03:21:03.508Z,16.27
2023-09-09T03:22:05.777Z,16.28
2023-09-09T03:23:08.227Z,16.28
2023-09-09T03:24:10.421Z,16.26
2023-09-09T03:25:12.678Z,16.27
2023-09-09T03:26:20.131Z,16.23
2023-09-09T03:27:22.467Z,16.20
2023-09-09T03:28:24.664Z,16.16
2023-09-09T03:29:26.809Z,16.16
2023-09-09T03:30:29.044Z,16.16
2023-09-09T03:31:31.258Z,16.16
2023-09-09T03:32:33.525Z,16.15
2023-09-09T03:33:36.164Z,16.15
2023-09-09T03:34:40.160Z,16.13
2023-09-09T03:35:42.338Z,16.11
2023-09-09T03:36:44.681Z,16.09
2023-09-09T03:37:46.843Z,16.09
2023-09-09T03:38:49.062Z,16.10
2023-09-09T03:39:52.131Z,16.10
2023-09-09T03:40:54.360Z,16.10
2023-09-09T03:41:56.524Z,16.11
2023-09-09T03:42:58.660Z,16.08
2023-09-09T03:44:00.895Z,16.11
2023-09-09T03:45:03.673Z,16.08
2023-09-09T03:46:05.889Z,16.08
2023-09-09T03:47:08.297Z,16.08
2023-09-09T03:48:10.560Z,16.07
2023-09-09T03:49:13.030Z,16.07
2023-09-09T03:50:15.204Z,16.06
2023-09-09T03:51:17.421Z,16.05
2023-09-09T03:52:19.592Z,16.06
2023-09-09T03:53:21.883Z,16.07
2023-09-09T03:54:24.330Z,16.07
2023-09-09T03:55:27.047Z,16.07
2023-09-09T03:56:29.210Z,16.07
2023-09-09T03:57:32.247Z,16.08
2023-09-09T03:58:34.394Z,16.09
2023-09-09T03:59:36.542Z,16.07
2023-09-09T04:00:38.817Z,16.08
2023-09-09T04:01:41.258Z,16.05
2023-09-09T04:02:43.487Z,16.06
2023-09-09T04:03:46.012Z,16.00
2023-09-09T04:04:48.480Z,16.00
2023-09-09T04:05:51.706Z,16.00
2023-09-09T04:06:53.901Z,15.99
2023-09-09T04:07:59.404Z,15.99
2023-09-09T04:09:01.684Z,16.01
2023-09-09T04:10:04.802Z,16.01
2023-09-09T04:11:07.619Z,15.98
2023-09-09T04:12:10.365Z,15.99
2023-09-09T04:13:12.637Z,15.98
2023-09-09T04:14:14.818Z,15.96
2023-09-09T04:15:17.076Z,15.97
2023-09-09T04:16:19.300Z,15.95
2023-09-09T04:17:21.507Z,15.97
2023-09-09T04:18:38.252Z,15.95
2023-09-09T04:19:46.626Z,15.94
2023-09-09T04:20:48.845Z,15.98
2023-09-09T04:21:52.763Z,16.00
2023-09-09T04:22:55.041Z,16.00
2023-09-09T04:23:57.189Z,15.98
2023-09-09T04:24:59.325Z,15.98
2023-09-09T04:26:01.498Z,15.96
2023-09-09T04:27:03.849Z,15.97
2023-09-09T04:28:06.833Z,15.99
2023-09-09T04:29:08.980Z,15.97
2023-09-09T04:30:11.720Z,15.98
2023-09-09T04:31:14.023Z,16.01
2023-09-09T04:32:16.220Z,16.04
2023-09-09T04:33:18.473Z,16.03
2023-09-09T04:34:21.309Z,16.01
2023-09-09T04:35:23.463Z,16.05
2023-09-09T04:36:25.665Z,16.09
2023-09-09T04:37:29.138Z,16.06
2023-09-09T04:38:31.332Z,16.08
2023-09-09T04:39:33.656Z,16.12
2023-09-09T04:40:39.832Z,16.13
2023-09-09T04:41:42.721Z,16.11
2023-09-09T04:42:44.882Z,16.18
2023-09-09T04:43:47.033Z,16.20
2023-09-09T04:44:49.171Z,16.18
2023-09-09T04:45:51.369Z,16.21
2023-09-09T04:46:53.584Z,16.24
2023-09-09T04:47:55.879Z,16.27
2023-09-09T04:48:58.223Z,16.33
2023-09-09T04:50:00.623Z,16.31
2023-09-09T04:51:02.841Z,16.31
2023-09-09T04:52:05.346Z,16.33
2023-09-09T04:53:08.388Z,16.34
2023-09-09T04:54:10.878Z,16.40
2023-09-09T04:55:13.754Z,16.43
2023-09-09T04:56:16.138Z,16.38
2023-09-09T04:57:21.537Z,16.38
2023-09-09T04:58:24.150Z,16.44
2023-09-09T04:59:26.318Z,16.48
2023-09-09T05:00:28.552Z,16.49
2023-09-09T05:01:30.796Z,16.58
2023-09-09T05:02:33.062Z,16.57
2023-09-09T05:03:35.341Z,16.56
2023-09-09T05:04:37.511Z,16.56
2023-09-09T05:05:39.659Z,16.61
2023-09-09T05:06:41.834Z,16.64
2023-09-09T05:07:43.993Z,16.66
2023-09-09T05:08:46.904Z,16.74
2023-09-09T05:09:49.124Z,16.74
2023-09-09T05:10:51.356Z,16.73
2023-09-09T05:11:53.532Z,16.75
2023-09-09T05:12:55.956Z,16.80
2023-09-09T05:13:58.198Z,16.85
2023-09-09T05:15:00.416Z,16.86
2023-09-09T05:16:02.617Z,16.89
2023-09-09T05:17:05.012Z,16.88
2023-09-09T05:18:07.479Z,16.92
2023-09-09T05:19:09.698Z,16.94
2023-09-09T05:20:12.897Z,16.99
2023-09-09T05:21:15.057Z,17.02
2023-09-09T05:22:17.799Z,17.01
2023-09-09T05:23:19.959Z,17.00
2023-09-09T05:24:22.102Z,17.03
2023-09-09T05:25:24.330Z,17.03
2023-09-09T05:26:26.630Z,17.04
2023-09-09T05:27:28.780Z,17.07
2023-09-09T05:28:30.982Z,17.14
2023-09-09T05:29:33.153Z,17.22
2023-09-09T05:30:35.338Z,17.19
2023-09-09T05:31:37.504Z,17.30
2023-09-09T05:32:40.334Z,17.35
2023-09-09T05:33:42.911Z,17.42
2023-09-09T05:34:45.536Z,17.46
2023-09-09T05:35:51.863Z,17.50
2023-09-09T05:36:54.066Z,17.52
2023-09-09T05:37:56.254Z,17.56
2023-09-09T05:39:01.012Z,17.59
2023-09-09T05:40:04.518Z,17.61
2023-09-09T05:41:07.086Z,17.64
2023-09-09T05:42:09.302Z,17.72
2023-09-09T05:43:11.473Z,17.84
2023-09-09T05:44:13.664Z,17.87
2023-09-09T05:45:16.107Z,17.86
2023-09-09T05:46:18.404Z,17.88
2023-09-09T05:47:20.754Z,17.89
2023-09-09T05:48:24.133Z,17.94
2023-09-09T05:49:37.653Z,17.90
2023-09-09T05:50:41.225Z,17.96
2023-09-09T05:51:43.377Z,18.02
2023-09-09T05:52:45.649Z,18.15
2023-09-09T05:53:49.031Z,18.12
2023-09-09T05:54:51.452Z,18.13
2023-09-09T05:55:53.647Z,18.15
2023-09-09T05:56:55.836Z,18.16
2023-09-09T05:57:58.097Z,18.19
2023-09-09T05:59:00.281Z,18.30
2023-09-09T06:00:03.527Z,18.38
2023-09-09T06:01:05.794Z,18.47
2023-09-09T06:02:07.999Z,18.51
2023-09-09T06:03:10.198Z,18.60
2023-09-09T06:04:15.802Z,18.66
2023-09-09T06:05:18.049Z,18.74
2023-09-09T06:06:20.220Z,18.80
2023-09-09T06:07:22.506Z,18.82
2023-09-09T06:08:24.734Z,18.81
2023-09-09T06:09:26.960Z,18.85
2023-09-09T06:10:30.026Z,18.89
2023-09-09T06:11:32.182Z,18.98
2023-09-09T06:12:34.624Z,19.05
2023-09-09T06:13:37.056Z,19.14
2023-09-09T06:14:39.519Z,19.21
2023-09-09T06:15:41.703Z,19.25
2023-09-09T06:16:43.853Z,19.30
2023-09-09T06:17:46.393Z,19.34
2023-09-09T06:18:48.824Z,19.42
2023-09-09T06:19:50.997Z,19.44
2023-09-09T06:20:54.378Z,19.52
2023-09-09T06:21:56.563Z,19.46
2023-09-09T06:22:59.205Z,19.50
2023-09-09T06:24:01.444Z,19.53
2023-09-09T06:25:04.875Z,19.58
2023-09-09T06:26:07.081Z,19.64
2023-09-09T06:27:10.079Z,19.65
2023-09-09T06:28:12.353Z,19.69
2023-09-09T06:29:14.546Z,19.78
2023-09-09T06:30:16.778Z,19.86
2023-09-09T06:31:19.019Z,19.97
2023-09-09T06:32:21.277Z,20.07
2023-09-09T06:33:23.668Z,20.12
2023-09-09T06:34:26.928Z,20.21
2023-09-09T06:35:29.239Z,20.31
2023-09-09T06:36:31.475Z,20.37
2023-09-09T06:37:33.648Z,20.48
2023-09-09T06:38:35.858Z,20.49
2023-09-09T06:39:38.195Z,20.56
2023-09-09T06:40:40.366Z,20.64
2023-09-09T06:41:42.504Z,20.71
2023-09-09T06:42:44.705Z,20.73
2023-09-09T06:43:47.951Z,20.79
2023-09-09T06:44:50.164Z,20.88
2023-09-09T06:45:52.381Z,20.92
2023-09-09T06:46:54.991Z,20.99
2023-09-09T06:47:57.217Z,21.07
2023-09-09T06:48:59.905Z,21.15
2023-09-09T06:50:02.218Z,21.21
2023-09-09T06:51:04.429Z,21.26
2023-09-09T06:52:06.972Z,21.31
2023-09-09T06:53:09.251Z,21.34
2023-09-09T06:54:11.856Z,21.38
2023-09-09T06:55:14.054Z,21.45
2023-09-09T06:56:16.254Z,21.52
2023-09-09T06:57:18.399Z,21.58
2023-09-09T06:58:20.575Z,21.65
2023-09-09T06:59:22.928Z,21.61
2023-09-09T07:00:25.151Z,21.66
2023-09-09T07:01:27.318Z,21.74
2023-09-09T07:02:29.548Z,21.82
2023-09-09T07:03:31.754Z,21.87
2023-09-09T07:04:34.479Z,21.92
2023-09-09T07:05:36.799Z,22.00
2023-09-09T07:06:40.904Z,22.05
2023-09-09T07:07:46.331Z,22.11
2023-09-09T07:08:48.827Z,22.14
2023-09-09T07:09:51.081Z,22.20
2023-09-09T07:10:53.645Z,22.24
2023-09-09T07:11:55.887Z,22.30
2023-09-09T07:12:58.091Z,22.37
2023-09-09T07:14:00.399Z,22.40
2023-09-09T07:15:02.738Z,22.43
2023-09-09T07:16:05.148Z,22.45
2023-09-09T07:17:07.374Z,22.51
2023-09-09T07:18:09.576Z,22.58
2023-09-09T07:19:11.790Z,22.64
2023-09-09T07:20:14.107Z,22.66
2023-09-09T07:21:16.331Z,22.75
2023-09-09T07:22:18.516Z,22.83
2023-09-09T07:23:20.656Z,22.88
2023-09-09T07:24:22.876Z,22.95
2023-09-09T07:25:25.140Z,22.98
2023-09-09T07:26:27.405Z,23.04
2023-09-09T07:27:29.653Z,23.07
2023-09-09T07:28:31.839Z,23.12
2023-09-09T07:29:34.031Z,23.06
2023-09-09T07:30:36.572Z,23.07
2023-09-09T07:31:40.567Z,22.98
2023-09-09T07:32:44.899Z,23.04
2023-09-09T07:33:47.164Z,22.96
2023-09-09T07:34:50.525Z,23.04
2023-09-09T07:35:53.815Z,23.08
2023-09-09T07:36:55.946Z,23.07
2023-09-09T07:37:58.144Z,23.09
2023-09-09T07:39:00.295Z,23.12
2023-09-09T07:40:02.481Z,23.19
2023-09-09T07:41:04.666Z,23.25
2023-09-09T07:42:06.825Z,23.28
2023-09-09T07:43:09.027Z,23.27
2023-09-09T07:44:11.206Z,23.34
2023-09-09T07:45:13.407Z,23.43
2023-09-09T07:46:15.831Z,23.49
2023-09-09T07:47:18.118Z,23.62
2023-09-09T07:48:20.480Z,23.70
2023-09-09T07:49:23.128Z,23.78
2023-09-09T07:50:26.120Z,23.84
2023-09-09T07:51:29.554Z,23.87
2023-09-09T07:52:31.698Z,23.92
2023-09-09T07:53:33.884Z,24.01
2023-09-09T07:54:36.106Z,24.09
2023-09-09T07:55:38.410Z,24.17
2023-09-09T07:56:43.261Z,24.21
2023-09-09T07:57:45.436Z,24.19
2023-09-09T07:58:47.587Z,24.27
2023-09-09T07:59:49.820Z,24.25
2023-09-09T08:01:05.598Z,24.28
2023-09-09T08:02:08.354Z,24.33
2023-09-09T08:03:11.949Z,24.15
2023-09-09T08:04:15.140Z,24.32
2023-09-09T08:05:17.364Z,24.34
2023-09-09T08:06:19.546Z,24.44
2023-09-09T08:07:21.778Z,24.50
2023-09-09T08:08:24.331Z,24.59
2023-09-09T08:09:27.710Z,24.70
2023-09-09T08:10:29.936Z,24.81
2023-09-09T08:11:32.177Z,24.84
2023-09-09T08:12:34.309Z,24.87
2023-09-09T08:13:36.766Z,24.98
2023-09-09T08:14:42.363Z,25.02
2023-09-09T08:15:44.653Z,25.03
2023-09-09T08:16:46.977Z,25.07
2023-09-09T08:17:49.331Z,25.15
2023-09-09T08:18:51.545Z,25.22
2023-09-09T08:19:54.487Z,25.29
2023-09-09T08:20:56.703Z,25.35
2023-09-09T08:21:58.839Z,25.43
2023-09-09T08:23:00.992Z,25.48
2023-09-09T08:24:03.243Z,25.52
2023-09-09T08:25:06.104Z,25.55
2023-09-09T08:26:08.442Z,25.48
2023-09-09T08:27:10.643Z,25.58
2023-09-09T08:28:12.853Z,25.82
2023-09-09T08:29:15.063Z,26.04
2023-09-09T08:30:18.329Z,26.39
2023-09-09T08:31:20.694Z,26.68
2023-09-09T08:32:22.958Z,26.86
2023-09-09T08:33:25.155Z,27.16
2023-09-09T08:34:27.256Z,27.38
2023-09-09T08:35:32.871Z,27.68
2023-09-09T08:36:35.072Z,27.98
2023-09-09T08:37:37.229Z,28.15
2023-09-09T08:38:39.505Z,28.16
2023-09-09T08:39:41.771Z,28.33
2023-09-09T08:40:56.813Z,28.47
2023-09-09T08:42:10.571Z,28.55
2023-09-09T08:43:37.121Z,28.60
2023-09-09T08:45:01.655Z,29.00
2023-09-09T08:46:22.350Z,29.16
2023-09-09T08:47:26.467Z,29.16
2023-09-09T08:48:31.610Z,29.22
2023-09-09T08:49:35.124Z,29.35
2023-09-09T08:50:41.061Z,29.43
2023-09-09T08:51:48.851Z,29.75
2023-09-09T08:52:54.269Z,29.58
2023-09-09T08:53:56.763Z,29.79
2023-09-09T08:54:59.067Z,29.88
2023-09-09T08:56:02.104Z,30.13
2023-09-09T08:57:04.764Z,30.33
2023-09-09T08:58:07.421Z,30.41
2023-09-09T08:59:09.757Z,30.36
2023-09-09T09:00:14.154Z,30.55
2023-09-09T09:01:16.869Z,30.75
2023-09-09T09:02:19.187Z,30.81
2023-09-09T09:03:21.840Z,30.97
2023-09-09T09:04:24.241Z,30.76
2023-09-09T09:05:26.847Z,30.85
2023-09-09T09:06:29.610Z,30.88
2023-09-09T09:07:33.533Z,31.01
2023-09-09T09:08:36.040Z,31.18
2023-09-09T09:09:38.352Z,31.16
2023-09-09T09:10:41.526Z,31.34
2023-09-09T09:11:45.210Z,31.37
2023-09-09T09:12:47.664Z,31.67
2023-09-09T09:13:51.342Z,31.83
2023-09-09T09:14:53.503Z,31.85
2023-09-09T09:15:55.655Z,31.97
2023-09-09T09:16:57.868Z,31.99
2023-09-09T09:18:01.127Z,31.78
2023-09-09T09:19:03.920Z,31.59
2023-09-09T09:20:08.536Z,31.42
2023-09-09T09:21:11.548Z,31.59
2023-09-09T09:22:14.502Z,31.50
2023-09-09T09:23:17.117Z,31.36
2023-09-09T09:24:23.814Z,31.64
2023-09-09T09:25:27.551Z,31.65
2023-09-09T09:26:30.801Z,31.51
2023-09-09T09:27:33.029Z,31.70
2023-09-09T09:28:35.298Z,31.90
2023-09-09T09:29:41.920Z,32.19
2023-09-09T09:30:44.607Z,32.03
2023-09-09T09:31:53.620Z,32.30
2023-09-09T09:32:56.391Z,32.11
2023-09-09T09:34:00.762Z,32.17
2023-09-09T09:35:02.959Z,32.21
2023-09-09T09:36:05.217Z,32.44
2023-09-09T09:37:11.467Z,32.88
2023-09-09T09:38:15.916Z,32.92
2023-09-09T09:39:18.214Z,32.27
2023-09-09T09:40:20.637Z,32.69
2023-09-09T09:41:23.405Z,32.84
2023-09-09T09:42:26.833Z,32.37
2023-09-09T09:43:29.106Z,32.37
2023-09-09T09:44:31.484Z,32.73
2023-09-09T09:45:33.705Z,32.79
2023-09-09T09:46:36.437Z,32.89
2023-09-09T09:47:48.663Z,32.65
2023-09-09T09:48:50.904Z,32.64
2023-09-09T09:49:53.240Z,32.52
2023-09-09T09:50:55.527Z,32.61
2023-09-09T09:51:57.778Z,32.71
2023-09-09T09:53:07.367Z,33.12
2023-09-09T09:54:09.629Z,33.46
2023-09-09T09:55:18.025Z,32.99
2023-09-09T09:56:21.200Z,32.72
2023-09-09T09:57:23.999Z,32.77
2023-09-09T09:58:28.272Z,33.14
2023-09-09T09:59:31.479Z,32.87
2023-09-09T10:00:34.515Z,32.94
2023-09-09T10:01:36.836Z,33.20
2023-09-09T10:02:40.377Z,33.52
2023-09-09T10:03:48.271Z,33.65
2023-09-09T10:04:52.330Z,33.55
2023-09-09T10:05:56.099Z,33.66
2023-09-09T10:07:01.147Z,33.70
2023-09-09T10:08:20.217Z,33.58
2023-09-09T10:09:36.435Z,33.00
2023-09-09T10:10:42.521Z,33.07
2023-09-09T10:11:51.253Z,33.05
2023-09-09T10:12:57.159Z,33.57
2023-09-09T10:14:17.998Z,33.90
2023-09-09T10:15:21.686Z,33.75
2023-09-09T10:16:24.249Z,34.03
2023-09-09T10:17:26.833Z,33.22
2023-09-09T10:18:30.027Z,33.68
2023-09-09T10:19:32.478Z,34.11
2023-09-09T10:20:34.682Z,34.31
2023-09-09T10:21:42.643Z,34.36
2023-09-09T10:22:48.726Z,34.72
2023-09-09T10:23:51.358Z,35.02
2023-09-09T10:24:54.650Z,34.66
2023-09-09T10:25:56.799Z,34.83
2023-09-09T10:27:00.515Z,34.57
2023-09-09T10:28:05.785Z,34.69
2023-09-09T10:29:09.539Z,34.66
2023-09-09T10:30:12.312Z,34.78
2023-09-09T10:31:15.279Z,34.58
2023-09-09T10:32:18.920Z,34.97
2023-09-09T10:33:22.010Z,35.34
2023-09-09T10:34:25.302Z,35.53
2023-09-09T10:35:28.581Z,35.41
2023-09-09T10:36:33.477Z,35.12
2023-09-09T10:37:39.061Z,35.06
2023-09-09T10:38:41.787Z,34.92
2023-09-09T10:39:44.389Z,34.60
2023-09-09T10:40:50.528Z,34.57
2023-09-09T10:41:53.184Z,34.52
2023-09-09T10:42:55.471Z,35.05
2023-09-09T10:43:57.739Z,35.32
2023-09-09T10:45:30.211Z,35.08
2023-09-09T10:46:34.913Z,34.91
2023-09-09T10:47:37.105Z,34.66
2023-09-09T10:48:39.418Z,34.28
2023-09-09T10:49:41.724Z,34.71
2023-09-09T10:50:53.311Z,34.85
2023-09-09T10:51:56.419Z,35.75
2023-09-09T10:53:23.328Z,35.65
2023-09-09T10:54:27.347Z,35.11
2023-09-09T10:55:30.473Z,34.90
2023-09-09T10:56:32.937Z,34.88
2023-09-09T10:57:35.490Z,35.21
2023-09-09T10:58:39.508Z,35.42
2023-09-09T10:59:41.896Z,35.17
2023-09-09T11:00:46.751Z,35.52
2023-09-09T11:01:53.008Z,36.23
2023-09-09T11:02:55.224Z,36.88
2023-09-09T11:03:58.847Z,36.41
2023-09-09T11:05:12.070Z,36.78
2023-09-09T11:06:28.927Z,36.31
2023-09-09T11:07:41.632Z,36.22
2023-09-09T11:08:48.051Z,36.44
2023-09-09T11:09:52.460Z,36.84
2023-09-09T11:11:11.150Z,36.43
2023-09-09T11:12:17.547Z,36.15
2023-09-09T11:13:19.750Z,35.78
2023-09-09T11:14:21.923Z,36.04
2023-09-09T11:15:27.220Z,36.30
2023-09-09T11:16:39.377Z,36.29
2023-09-09T11:17:45.834Z,36.52
2023-09-09T11:18:48.300Z,36.71
2023-09-09T11:19:50.600Z,37.24
2023-09-09T11:20:53.693Z,37.52
2023-09-09T11:21:56.325Z,37.03
2023-09-09T11:22:59.710Z,37.30
2023-09-09T11:24:03.537Z,36.69
2023-09-09T11:25:07.606Z,37.06
2023-09-09T11:26:11.903Z,37.17
2023-09-09T11:27:14.101Z,37.16
2023-09-09T11:28:16.385Z,37.53
2023-09-09T11:29:35.601Z,37.70
2023-09-09T11:30:43.095Z,37.13
2023-09-09T11:31:45.954Z,36.91
2023-09-09T11:32:49.648Z,36.31
2023-09-09T11:33:55.607Z,36.18
2023-09-09T11:34:58.446Z,36.38
2023-09-09T11:36:00.640Z,36.69
2023-09-09T11:37:04.047Z,36.37
2023-09-09T11:38:06.264Z,36.98
2023-09-09T11:39:08.848Z,37.60
2023-09-09T11:40:11.742Z,37.38
2023-09-09T11:41:24.243Z,36.94
2023-09-09T11:42:26.410Z,36.76
2023-09-09T11:43:28.607Z,36.80
2023-09-09T11:44:38.022Z,36.68
2023-09-09T11:45:40.225Z,36.47
2023-09-09T11:46:44.331Z,36.56
2023-09-09T11:47:46.568Z,36.66
2023-09-09T11:48:48.720Z,36.52
2023-09-09T11:49:51.111Z,36.37
2023-09-09T11:50:53.503Z,36.41
2023-09-09T11:51:55.653Z,36.67
2023-09-09T11:52:58.947Z,36.54
2023-09-09T11:54:01.376Z,36.96
2023-09-09T11:55:03.631Z,37.57
2023-09-09T11:56:05.902Z,38.12
2023-09-09T11:57:09.014Z,37.75
2023-09-09T11:58:11.257Z,36.15
2023-09-09T11:59:13.460Z,36.66
2023-09-09T12:00:22.407Z,37.07
2023-09-09T12:01:24.978Z,36.75
2023-09-09T12:02:28.107Z,36.77
2023-09-09T12:03:30.734Z,36.47
2023-09-09T12:04:33.079Z,36.79
2023-09-09T12:05:35.398Z,36.16
2023-09-09T12:06:40.130Z,35.89
2023-09-09T12:07:43.159Z,35.68
2023-09-09T12:08:45.428Z,35.75
2023-09-09T12:09:47.750Z,35.57
2023-09-09T12:10:51.075Z,36.27
2023-09-09T12:11:53.652Z,37.06
2023-09-09T12:12:55.978Z,37.07
2023-09-09T12:13:58.190Z,37.80
2023-09-09T12:15:01.187Z,36.39
2023-09-09T12:16:06.371Z,35.64
2023-09-09T12:17:08.744Z,35.03
2023-09-09T12:18:12.887Z,34.93
2023-09-09T12:19:15.227Z,35.20
2023-09-09T12:20:17.740Z,35.77
2023-09-09T12:21:20.171Z,36.05
2023-09-09T12:22:48.986Z,36.15
2023-09-09T12:23:57.949Z,36.29
2023-09-09T12:25:00.545Z,36.31
2023-09-09T12:26:22.937Z,35.52
2023-09-09T12:27:41.731Z,35.55
2023-09-09T12:28:45.379Z,35.69
2023-09-09T12:29:47.628Z,36.67
2023-09-09T12:30:51.971Z,36.64
2023-09-09T12:31:57.068Z,36.93
2023-09-09T12:33:12.667Z,37.08
2023-09-09T12:34:18.941Z,36.37
2023-09-09T12:35:21.121Z,36.40
2023-09-09T12:36:23.353Z,36.70
2023-09-09T12:37:25.564Z,36.62
2023-09-09T12:38:27.765Z,37.42
2023-09-09T12:39:31.439Z,36.77
2023-09-09T12:40:48.641Z,36.45
2023-09-09T12:42:07.960Z,36.89
2023-09-09T12:43:11.094Z,37.96
2023-09-09T12:44:13.396Z,38.30
2023-09-09T12:45:15.553Z,38.03
2023-09-09T12:46:20.450Z,38.56
2023-09-09T12:47:24.114Z,38.84
2023-09-09T12:48:26.330Z,38.66
2023-09-09T12:49:29.604Z,39.07
2023-09-09T12:50:31.758Z,39.54
2023-09-09T12:51:34.422Z,39.44
2023-09-09T12:52:36.639Z,39.06
2023-09-09T12:53:39.045Z,39.23
2023-09-09T12:54:41.719Z,39.38
2023-09-09T12:55:43.964Z,39.00
2023-09-09T12:56:46.192Z,39.08
2023-09-09T12:57:48.530Z,39.13
2023-09-09T12:58:50.689Z,39.52
2023-09-09T12:59:52.886Z,39.22
2023-09-09T13:00:55.125Z,39.11
2023-09-09T13:01:57.339Z,38.88
2023-09-09T13:02:59.666Z,39.51
2023-09-09T13:04:01.943Z,39.10
2023-09-09T13:05:05.019Z,39.37
2023-09-09T13:06:07.992Z,38.87
2023-09-09T13:07:10.977Z,39.21
2023-09-09T13:08:13.141Z,39.46
2023-09-09T13:09:15.348Z,39.17
2023-09-09T13:10:17.935Z,39.02
2023-09-09T13:11:20.232Z,38.96
2023-09-09T13:12:22.588Z,38.31
2023-09-09T13:13:24.762Z,39.16
2023-09-09T13:14:27.195Z,39.99
2023-09-09T13:15:29.550Z,39.97
2023-09-09T13:16:32.321Z,40.20
2023-09-09T13:17:34.819Z,39.73
2023-09-09T13:18:37.068Z,39.12
2023-09-09T13:19:40.213Z,38.43
2023-09-09T13:20:43.072Z,38.96
2023-09-09T13:21:45.237Z,38.94
2023-09-09T13:22:47.410Z,38.69
2023-09-09T13:23:49.587Z,38.50
2023-09-09T13:24:52.942Z,38.14
2023-09-09T13:25:56.182Z,38.02
2023-09-09T13:26:58.332Z,38.11
2023-09-09T13:28:00.682Z,38.26
2023-09-09T13:29:02.851Z,37.65
2023-09-09T13:30:05.883Z,37.91
2023-09-09T13:31:08.060Z,37.88
2023-09-09T13:32:10.325Z,37.98
2023-09-09T13:33:12.902Z,37.71
2023-09-09T13:34:15.368Z,38.22
2023-09-09T13:35:17.602Z,38.13
2023-09-09T13:36:19.763Z,37.72